Time;durP1;ratioP1;P1;durP2;ratioP2;P2;SDS_P1;SDS_P2;PMS_P1;PMS_P2;Temp;Humidity;BMP_temperature;BMP_pressure;BME280_temperature;BME280_humidity;BME280_pressure;Samples;Min_cycle;Max_cycle;Signal;HPM_P1;HPM_P2
2023/04/16 00:00:03;;;;;;;12.43;3.20;;;;;;;9.40;75.46;102077.06;5042250;28;20039;-87
2023/04/16 00:02:29;;;;;;;8.10;3.67;;;;;;;9.42;76.16;102084.06;5041761;28;20033;-86
2023/04/16 00:04:54;;;;;;;7.00;3.15;;;;;;;9.40;76.06;102075.28;5036405;28;20380;-86
2023/04/16 00:07:20;;;;;;;10.00;3.88;;;;;;;9.41;75.51;102077.03;5043463;28;20049;-87
2023/04/16 00:09:45;;;;;;;10.98;3.28;;;;;;;9.41;75.52;102071.75;5036211;28;20025;-87
2023/04/16 00:12:10;;;;;;;7.65;3.17;;;;;;;9.34;75.65;102074.53;5026341;28;20501;-87
2023/04/16 00:14:36;;;;;;;7.63;3.13;;;;;;;9.40;75.90;102084.97;5026384;28;20033;-86
2023/04/16 00:17:01;;;;;;;8.02;3.50;;;;;;;9.34;75.79;102072.75;5019039;28;20515;-86
2023/04/16 00:19:27;;;;;;;8.95;3.80;;;;;;;9.37;76.03;102085.00;5019932;28;20116;-87
2023/04/16 00:21:52;;;;;;;9.27;3.47;;;;;;;9.39;75.83;102080.59;5043828;28;20021;-87
2023/04/16 00:24:17;;;;;;;10.38;4.00;;;;;;;9.45;75.74;102083.13;5024962;28;20054;-86
2023/04/16 00:26:45;;;;;;;9.20;3.88;;;;;;;9.40;75.96;102075.28;5018375;28;20067;-87
2023/04/16 00:29:10;;;;;;;8.63;4.70;;;;;;;9.47;76.01;102091.94;5043385;28;20043;-87
2023/04/16 00:31:35;;;;;;;9.40;3.60;;;;;;;9.45;76.25;102084.00;5023502;28;20032;-86
2023/04/16 00:34:01;;;;;;;10.40;3.80;;;;;;;9.40;76.27;102069.16;5029715;28;20039;-87
2023/04/16 00:36:26;;;;;;;9.80;3.83;;;;;;;9.36;76.33;102073.59;5046129;28;20036;-86
2023/04/16 00:38:53;;;;;;;16.77;4.00;;;;;;;9.41;76.64;102076.16;5054221;28;20033;-86
2023/04/16 00:41:18;;;;;;;7.03;3.75;;;;;;;9.37;76.80;102075.38;5047345;28;20078;-86
2023/04/16 00:43:44;;;;;;;12.55;4.28;;;;;;;9.42;76.69;102077.94;5024717;28;20036;-86
2023/04/16 00:46:09;;;;;;;13.57;4.40;;;;;;;9.34;77.03;102071.88;5039186;28;20114;-86
2023/04/16 00:48:37;;;;;;;10.15;3.88;;;;;;;9.36;77.45;102083.28;5041679;28;20506;-86
2023/04/16 00:51:07;;;;;;;9.70;3.83;;;;;;;9.37;77.30;102079.75;5024703;28;20031;-86
2023/04/16 00:53:33;;;;;;;11.35;4.20;;;;;;;9.37;77.20;102077.09;5026779;28;20027;-86
2023/04/16 00:56:01;;;;;;;4.72;3.83;;;;;;;9.40;77.59;102077.06;5037060;28;20102;-86
2023/04/16 00:58:27;;;;;;;8.10;3.92;;;;;;;9.40;77.75;102074.44;5044335;28;20087;-86
2023/04/16 01:00:52;;;;;;;12.07;4.57;;;;;;;9.39;77.87;102078.84;5043557;28;20025;-86
2023/04/16 01:03:18;;;;;;;12.30;4.90;;;;;;;9.30;78.21;102071.06;5016433;28;20047;-86
2023/04/16 01:05:44;;;;;;;11.50;5.00;;;;;;;9.33;77.98;102067.50;5026886;28;20033;-86
2023/04/16 01:08:20;;;;;;;13.13;4.93;;;;;;;9.42;78.01;102072.66;5047079;28;20102;-87
2023/04/16 01:10:45;;;;;;;10.95;4.88;;;;;;;9.35;77.99;102071.84;5043630;28;20056;-87
2023/04/16 01:13:11;;;;;;;9.23;5.50;;;;;;;9.34;78.52;102071.88;5042001;28;20460;-86
2023/04/16 01:15:36;;;;;;;8.52;5.18;;;;;;;9.37;78.19;102069.19;5026831;28;20052;-87
2023/04/16 01:18:02;;;;;;;11.07;5.55;;;;;;;9.32;78.23;102063.97;5031167;28;20048;-87
2023/04/16 01:20:28;;;;;;;9.05;5.18;;;;;;;9.38;78.73;102068.31;5040695;28;20057;-86
2023/04/16 01:22:53;;;;;;;7.40;5.22;;;;;;;9.40;78.68;102066.50;5049663;28;20484;-87
2023/04/16 01:25:19;;;;;;;8.35;5.38;;;;;;;9.40;78.76;102069.16;5043701;28;20099;-87
2023/04/16 01:27:48;;;;;;;11.02;5.32;;;;;;;9.36;78.64;102067.44;5038476;28;20071;-86
2023/04/16 01:30:13;;;;;;;11.65;5.50;;;;;;;9.33;78.97;102067.50;5024702;28;20052;-87
2023/04/16 01:32:39;;;;;;;12.10;5.93;;;;;;;9.35;79.19;102063.06;5025290;28;20484;-86
2023/04/16 01:35:04;;;;;;;14.65;5.05;;;;;;;9.36;78.99;102065.66;5024598;28;20027;-86
2023/04/16 01:37:30;;;;;;;10.80;5.28;;;;;;;9.37;78.86;102067.44;5024441;28;20051;-87
2023/04/16 01:39:55;;;;;;;13.90;5.35;;;;;;;9.33;79.08;102062.22;5040611;28;20381;-86
2023/04/16 01:42:20;;;;;;;11.88;5.80;;;;;;;9.35;79.78;102071.00;5030643;28;20029;-86
2023/04/16 01:44:46;;;;;;;10.13;5.32;;;;;;;9.37;79.73;102072.72;5020357;28;20116;-86
2023/04/16 01:47:11;;;;;;;8.20;4.70;;;;;;;9.35;79.62;102065.72;5020655;28;20017;-86
2023/04/16 01:49:37;;;;;;;13.43;5.18;;;;;;;9.36;79.73;102070.94;5050859;28;20029;-87
2023/04/16 01:52:02;;;;;;;8.38;5.10;;;;;;;9.44;79.82;102081.41;5041317;28;20036;-87
2023/04/16 01:54:27;;;;;;;11.63;5.53;;;;;;;9.45;79.60;102081.38;5027848;28;20024;-86
2023/04/16 01:56:53;;;;;;;10.27;5.47;;;;;;;9.46;79.90;102082.25;5049706;28;20074;-87
2023/04/16 01:59:19;;;;;;;10.40;5.07;;;;;;;9.51;79.58;102084.81;5023799;28;20047;-87
2023/04/16 02:01:44;;;;;;;10.52;5.13;;;;;;;9.50;79.74;102075.16;5029772;28;20052;-86
2023/04/16 02:04:11;;;;;;;11.82;4.85;;;;;;;9.55;79.94;102084.72;5031325;28;20056;-87
2023/04/16 02:06:36;;;;;;;9.60;5.20;;;;;;;9.43;80.00;102077.91;5027969;28;20035;-87
2023/04/16 02:09:02;;;;;;;9.57;4.55;;;;;;;9.44;79.89;102077.00;5024163;28;20033;-87
2023/04/16 02:11:27;;;;;;;8.55;4.90;;;;;;;9.51;79.74;102069.84;5029887;28;20116;-87
2023/04/16 02:13:52;;;;;;;11.27;4.40;;;;;;;9.57;79.66;102066.25;5030276;28;20036;-87
2023/04/16 02:16:17;;;;;;;11.23;5.22;;;;;;;9.56;79.47;102069.75;5040389;28;20049;-87
2023/04/16 02:18:43;;;;;;;8.50;4.40;;;;;;;9.59;79.55;102070.59;5041273;28;20021;-87
2023/04/16 02:21:08;;;;;;;8.77;4.03;;;;;;;9.56;79.82;102075.94;5047972;28;20025;-86
2023/04/16 02:23:33;;;;;;;9.23;4.10;;;;;;;9.56;79.61;102061.84;5048718;28;20028;-87
2023/04/16 02:25:59;;;;;;;8.98;4.13;;;;;;;9.55;79.48;102071.53;5028018;28;20472;-87
2023/04/16 02:28:25;;;;;;;5.63;4.57;;;;;;;9.57;79.82;102066.25;5029567;28;20082;-87
2023/04/16 02:30:50;;;;;;;9.07;4.15;;;;;;;9.61;80.06;102068.81;5039812;28;20037;-86
2023/04/16 02:33:15;;;;;;;7.38;3.92;;;;;;;9.59;79.94;102067.94;5021490;28;20035;-87
2023/04/16 02:35:41;;;;;;;8.77;4.20;;;;;;;9.57;80.27;102066.25;5047116;28;20425;-86
2023/04/16 02:38:07;;;;;;;5.45;3.72;;;;;;;9.55;80.46;102068.88;5045771;28;20017;-87
2023/04/16 02:40:32;;;;;;;5.45;3.47;;;;;;;9.51;80.86;102072.47;5041420;28;20162;-87
2023/04/16 02:42:58;;;;;;;9.63;4.05;;;;;;;9.51;80.27;102072.47;5044485;28;20472;-87
2023/04/16 02:45:23;;;;;;;9.90;4.15;;;;;;;9.54;80.76;102080.34;5056633;28;20484;-86
2023/04/16 02:47:49;;;;;;;6.05;3.45;;;;;;;9.51;80.62;102076.88;5044807;28;20025;-87
2023/04/16 02:50:16;;;;;;;6.13;3.70;;;;;;;9.53;80.94;102086.53;5023077;28;20055;-86
2023/04/16 02:52:41;;;;;;;14.32;3.80;;;;;;;9.50;80.96;102077.78;5038911;28;20025;-86
2023/04/16 02:55:07;;;;;;;8.68;4.18;;;;;;;9.49;80.93;102078.69;5028065;28;20549;-87
2023/04/16 02:57:33;;;;;;;10.32;4.32;;;;;;;9.52;80.64;102083.94;5047930;28;20436;-87
2023/04/16 02:59:58;;;;;;;9.10;4.20;;;;;;;9.51;80.92;102084.81;5025844;28;20082;-86
2023/04/16 03:02:23;;;;;;;7.63;4.43;;;;;;;9.50;80.99;102094.50;5041319;28;20063;-86
2023/04/16 03:04:49;;;;;;;9.00;3.95;;;;;;;9.54;81.00;102096.19;5027421;28;20107;-87
2023/04/16 03:07:14;;;;;;;7.75;4.15;;;;;;;9.53;80.99;102089.19;5045405;28;20037;-87
2023/04/16 03:09:40;;;;;;;9.18;4.88;;;;;;;9.46;81.13;102082.25;5042891;28;20029;-87
2023/04/16 03:12:05;;;;;;;9.05;4.50;;;;;;;9.49;81.18;102091.88;5047068;28;20108;-87
2023/04/16 03:14:30;;;;;;;11.10;5.28;;;;;;;9.50;81.21;102097.13;5029753;28;20021;-87
2023/04/16 03:16:56;;;;;;;10.02;4.85;;;;;;;9.55;81.65;102091.78;5043400;28;20045;-86
2023/04/16 03:19:22;;;;;;;9.25;4.93;;;;;;;9.47;81.32;102083.13;5043299;28;20036;-86
2023/04/16 03:21:47;;;;;;;8.52;5.18;;;;;;;9.49;81.44;102095.41;5040311;28;20527;-87
2023/04/16 03:24:12;;;;;;;10.15;4.85;;;;;;;9.49;81.20;102094.53;5039036;28;20033;-87
2023/04/16 03:26:38;;;;;;;15.63;6.00;;;;;;;9.48;81.42;102096.31;5023840;28;20594;-86
2023/04/16 03:29:03;;;;;;;11.82;5.30;;;;;;;9.49;81.40;102105.09;5028553;28;20104;-87
2023/04/16 03:31:29;;;;;;;11.43;5.40;;;;;;;9.42;81.99;102099.91;5017830;28;20025;-86
2023/04/16 03:33:54;;;;;;;10.52;5.95;;;;;;;9.35;81.73;102087.69;5024550;28;20029;-87
2023/04/16 03:36:21;;;;;;;14.88;6.65;;;;;;;9.43;81.57;102096.38;5025272;28;20032;-86
2023/04/16 03:38:47;;;;;;;12.43;6.47;;;;;;;9.42;81.77;102097.28;5047678;28;20392;-86
2023/04/16 03:41:12;;;;;;;11.18;6.47;;;;;;;9.44;82.02;102098.09;5044539;28;20033;-86
2023/04/16 03:43:37;;;;;;;10.82;6.05;;;;;;;9.45;81.85;102105.13;5024568;28;20051;-86
2023/04/16 03:46:02;;;;;;;12.52;6.85;;;;;;;9.50;82.06;102107.69;5048159;28;20029;-87
2023/04/16 03:48:28;;;;;;;14.82;7.03;;;;;;;9.47;81.55;102099.84;5049701;28;20021;-87
2023/04/16 03:50:53;;;;;;;11.80;6.85;;;;;;;9.47;81.80;102093.69;5025376;28;20441;-87
2023/04/16 03:53:18;;;;;;;14.60;7.00;;;;;;;9.48;81.55;102106.00;5028411;28;20080;-87
2023/04/16 03:55:44;;;;;;;12.55;7.82;;;;;;;9.45;81.43;102097.22;5030807;28;20033;-87
2023/04/16 03:58:09;;;;;;;19.70;8.32;;;;;;;9.42;81.74;102093.78;5017996;28;20027;-87
2023/04/16 04:00:35;;;;;;;13.65;7.43;;;;;;;9.51;81.60;102103.28;5047955;28;20373;-87
2023/04/16 04:03:00;;;;;;;14.45;7.68;;;;;;;9.48;81.63;102106.00;5023164;28;20037;-87
2023/04/16 04:05:25;;;;;;;16.95;8.60;;;;;;;9.52;81.63;102105.94;5046767;28;20471;-87
2023/04/16 04:07:51;;;;;;;13.15;7.45;;;;;;;9.53;81.27;102109.44;5019675;28;20439;-87
2023/04/16 04:10:16;;;;;;;13.70;8.05;;;;;;;9.49;81.39;102099.81;5022348;28;20034;-87
2023/04/16 04:12:42;;;;;;;15.95;7.57;;;;;;;9.50;81.26;102098.91;5038441;28;20082;-86
2023/04/16 04:15:08;;;;;;;14.80;8.23;;;;;;;9.53;81.25;102112.94;5042767;28;20046;-87
2023/04/16 04:17:33;;;;;;;13.40;8.07;;;;;;;9.50;81.81;102096.28;5035928;28;20084;-87
2023/04/16 04:19:58;;;;;;;17.83;9.00;;;;;;;9.53;81.56;102102.38;5045521;28;20484;-86
2023/04/16 04:22:24;;;;;;;16.70;8.13;;;;;;;9.52;80.94;102102.41;5037528;28;20034;-87
2023/04/16 04:24:49;;;;;;;15.23;8.13;;;;;;;9.56;81.14;102104.97;5040340;28;20481;-87
2023/04/16 04:27:14;;;;;;;12.88;8.38;;;;;;;9.56;81.32;102109.38;5015218;28;20510;-86
2023/04/16 04:29:40;;;;;;;14.43;8.43;;;;;;;9.60;80.91;102119.84;5028091;28;20026;-87
2023/04/16 04:32:05;;;;;;;12.82;7.88;;;;;;;9.58;81.06;102111.09;5024539;28;20082;-87
2023/04/16 04:34:30;;;;;;;17.23;8.40;;;;;;;9.56;81.44;102112.91;5021134;28;20395;-86
2023/04/16 04:36:56;;;;;;;15.93;7.95;;;;;;;9.62;81.13;102112.78;5045246;28;20075;-87
2023/04/16 04:39:21;;;;;;;16.90;8.38;;;;;;;9.64;80.76;102110.13;5040618;28;20024;-86
2023/04/16 04:41:47;;;;;;;11.88;8.15;;;;;;;9.71;80.46;102127.63;5018292;28;20016;-87
2023/04/16 04:44:12;;;;;;;13.57;8.07;;;;;;;9.70;80.71;102121.47;5046317;28;20129;-87
2023/04/16 04:46:39;;;;;;;16.35;7.90;;;;;;;9.68;80.54;102122.38;5025198;28;20473;-87
2023/04/16 04:49:04;;;;;;;15.25;7.93;;;;;;;9.65;80.75;102119.78;5043893;28;20021;-87
2023/04/16 04:51:30;;;;;;;11.80;8.27;;;;;;;9.63;80.68;102125.09;5038141;28;20044;-87
2023/04/16 04:53:55;;;;;;;17.90;8.38;;;;;;;9.71;80.51;102133.78;5029367;28;20380;-87
2023/04/16 04:56:20;;;;;;;15.75;8.32;;;;;;;9.67;81.23;102128.56;5029981;28;20094;-87
2023/04/16 04:58:45;;;;;;;14.07;7.85;;;;;;;9.67;80.95;102125.94;5032436;28;20035;-87
2023/04/16 05:01:11;;;;;;;15.10;7.60;;;;;;;9.67;81.02;102131.22;5042645;28;20037;-87
2023/04/16 05:03:36;;;;;;;17.35;8.05;;;;;;;9.68;80.75;102130.31;5026675;28;20037;-86
2023/04/16 05:06:01;;;;;;;11.80;7.55;;;;;;;9.72;80.83;102129.38;5044798;28;20025;-87
2023/04/16 05:08:27;;;;;;;16.70;8.18;;;;;;;9.69;81.08;102129.41;5040411;28;20025;-87
2023/04/16 05:10:52;;;;;;;17.02;8.45;;;;;;;9.75;81.03;102134.59;5023544;28;20116;-87
2023/04/16 05:13:17;;;;;;;14.85;7.15;;;;;;;9.61;81.36;102136.59;5025393;28;20082;-86
2023/04/16 05:15:44;;;;;;;21.15;9.02;;;;;;;9.75;81.32;102139.03;5039084;28;20048;-87
2023/04/16 05:18:09;;;;;;;16.55;8.38;;;;;;;9.77;80.88;102134.56;5027127;28;20124;-87
2023/04/16 05:20:36;;;;;;;13.57;8.10;;;;;;;9.76;80.79;102140.75;5046387;28;20096;-87
2023/04/16 05:23:02;;;;;;;15.23;7.78;;;;;;;9.78;80.97;102145.09;5025265;28;20075;-87
2023/04/16 05:25:27;;;;;;;14.82;7.85;;;;;;;9.82;80.63;102140.66;5043729;28;20029;-87
2023/04/16 05:27:52;;;;;;;19.70;9.68;;;;;;;9.77;80.53;102130.16;5047158;28;20040;-87
2023/04/16 05:30:18;;;;;;;17.15;8.85;;;;;;;9.83;80.50;102145.03;5046655;28;20432;-87
2023/04/16 05:32:43;;;;;;;15.98;8.38;;;;;;;9.80;80.37;102139.81;5043378;28;20927;-87
2023/04/16 05:35:09;;;;;;;12.93;8.25;;;;;;;9.85;80.45;102146.75;5043888;28;20095;-87
2023/04/16 05:37:34;;;;;;;13.52;7.40;;;;;;;9.80;81.00;102155.66;5025609;28;20032;-88
2023/04/16 05:39:59;;;;;;;18.98;8.55;;;;;;;9.80;81.19;102145.09;5038385;28;20025;-87
2023/04/16 05:42:24;;;;;;;14.35;8.65;;;;;;;9.85;80.94;102167.91;5021721;28;20371;-87
2023/04/16 05:44:50;;;;;;;13.35;8.32;;;;;;;9.66;81.74;102146.19;5051398;28;20136;-87
2023/04/16 05:47:16;;;;;;;18.08;8.45;;;;;;;9.78;81.50;102158.31;5046083;28;20021;-86
2023/04/16 05:49:41;;;;;;;18.17;8.45;;;;;;;9.83;80.72;102166.16;5027847;28;20029;-87
2023/04/16 05:52:06;;;;;;;18.98;9.10;;;;;;;9.85;81.05;102159.09;5046871;28;20108;-87
2023/04/16 05:54:32;;;;;;;14.70;8.32;;;;;;;9.81;80.81;102160.91;5047367;28;20296;-87
2023/04/16 05:56:58;;;;;;;16.23;8.77;;;;;;;9.84;81.18;102167.91;5042238;28;20064;-87
2023/04/16 05:59:23;;;;;;;18.52;8.88;;;;;;;9.83;80.89;102164.38;5040775;28;20785;-87
2023/04/16 06:01:49;;;;;;;18.20;9.75;;;;;;;9.83;81.43;102174.94;5043582;28;20072;-87
2023/04/16 06:04:14;;;;;;;20.70;10.25;;;;;;;9.78;81.36;102165.38;5040929;28;20025;-86
2023/04/16 06:06:39;;;;;;;19.13;9.65;;;;;;;9.86;81.55;102180.19;5042705;28;20026;-87
2023/04/16 06:09:05;;;;;;;18.70;8.95;;;;;;;9.92;81.10;102181.88;5043566;28;20021;-87
2023/04/16 06:11:30;;;;;;;18.05;9.02;;;;;;;9.77;81.65;102167.13;5016810;28;20047;-87
2023/04/16 06:13:55;;;;;;;20.52;9.90;;;;;;;9.83;81.55;102168.81;5038945;28;20641;-87
2023/04/16 06:16:21;;;;;;;24.10;9.43;;;;;;;9.80;81.44;102175.03;5042844;28;20149;-86
2023/04/16 06:18:46;;;;;;;17.60;8.65;;;;;;;9.85;81.34;102165.25;5024145;28;20408;-87
2023/04/16 06:21:11;;;;;;;17.60;9.80;;;;;;;9.88;81.54;102180.16;5037851;28;20028;-87
2023/04/16 06:23:37;;;;;;;22.58;10.77;;;;;;;9.86;81.63;102172.28;5023857;28;20037;-87
2023/04/16 06:26:04;;;;;;;22.45;10.65;;;;;;;9.85;81.49;102174.94;5044974;28;20017;-87
2023/04/16 06:28:29;;;;;;;17.25;9.45;;;;;;;9.85;81.56;102181.09;5025081;28;20453;-87
2023/04/16 06:30:55;;;;;;;19.63;10.27;;;;;;;9.87;81.71;102184.56;5049746;28;20032;-87
2023/04/16 06:33:20;;;;;;;18.70;9.30;;;;;;;9.90;81.98;102197.75;5038600;28;20037;-87
2023/04/16 06:35:46;;;;;;;20.25;10.30;;;;;;;9.87;81.95;102192.50;5041330;28;20029;-86
2023/04/16 06:38:11;;;;;;;23.80;10.38;;;;;;;9.91;81.98;102188.91;5037151;28;20037;-86
2023/04/16 06:40:36;;;;;;;21.42;9.73;;;;;;;9.93;81.76;102197.72;5041625;28;20099;-87
2023/04/16 06:43:02;;;;;;;23.83;10.98;;;;;;;9.94;82.01;102195.94;5039029;28;20036;-87
2023/04/16 06:45:27;;;;;;;22.30;10.07;;;;;;;9.95;82.01;102200.31;5042922;28;20021;-87
2023/04/16 06:47:52;;;;;;;22.17;10.65;;;;;;;10.02;81.93;102203.72;5020311;28;20460;-87
2023/04/16 06:50:18;;;;;;;24.50;9.98;;;;;;;10.05;81.69;102208.97;5018679;28;20029;-87
2023/04/16 06:52:43;;;;;;;20.38;10.30;;;;;;;10.04;81.48;102209.88;5032724;28;20036;-87
2023/04/16 06:55:09;;;;;;;23.60;11.15;;;;;;;10.10;81.30;102210.63;5025314;28;20032;-87
2023/04/16 06:57:34;;;;;;;23.25;10.15;;;;;;;10.04;81.42;102208.09;5035995;28;20029;-87
2023/04/16 07:00:04;;;;;;;21.00;10.02;;;;;;;10.07;81.81;102216.00;5037974;28;20366;-87
2023/04/16 07:02:31;;;;;;;24.17;11.60;;;;;;;10.06;81.83;102216.88;5017497;28;20028;-88
2023/04/16 07:04:57;;;;;;;23.08;10.85;;;;;;;10.07;81.56;102218.63;5042610;28;20032;-87
2023/04/16 07:07:22;;;;;;;23.55;10.25;;;;;;;10.03;81.40;102201.06;5048823;28;20025;-87
2023/04/16 07:09:47;;;;;;;21.13;10.27;;;;;;;10.13;81.46;102222.94;5018591;28;20461;-87
2023/04/16 07:12:13;;;;;;;22.80;10.45;;;;;;;10.04;81.26;102201.94;5024112;28;20052;-87
2023/04/16 07:14:38;;;;;;;24.38;10.73;;;;;;;10.17;81.39;102230.78;5041394;28;20654;-87
2023/04/16 07:17:03;;;;;;;21.85;10.65;;;;;;;10.14;81.55;102227.31;5047397;28;20045;-87
2023/04/16 07:19:31;;;;;;;29.17;12.23;;;;;;;10.17;81.48;102240.50;5044309;28;20104;-87
2023/04/16 07:21:57;;;;;;;19.83;10.40;;;;;;;10.19;81.27;102225.47;5040763;28;20048;-87
2023/04/16 07:24:23;;;;;;;22.67;12.13;;;;;;;10.21;81.79;102240.41;5046088;28;20059;-87
2023/04/16 07:26:48;;;;;;;23.27;11.23;;;;;;;10.15;81.20;102231.69;5052971;28;20058;-87
2023/04/16 07:29:13;;;;;;;28.33;11.50;;;;;;;10.11;81.98;102228.22;5024205;28;20025;-87
2023/04/16 07:31:38;;;;;;;22.55;10.77;;;;;;;10.20;81.79;102243.94;5029386;28;20076;-87
2023/04/16 07:34:04;;;;;;;22.83;10.95;;;;;;;10.18;81.20;102243.09;5045732;28;20025;-87
2023/04/16 07:36:30;;;;;;;27.33;12.63;;;;;;;10.18;81.71;102243.09;5024969;28;20021;-87
2023/04/16 07:38:55;;;;;;;25.45;11.57;;;;;;;10.20;81.37;102243.94;5042234;28;20044;-87
2023/04/16 07:41:21;;;;;;;31.52;11.35;;;;;;;10.26;81.46;102240.38;5053720;28;20065;-87
2023/04/16 07:43:46;;;;;;;30.95;12.05;;;;;;;10.28;81.42;102243.84;5042454;28;20468;-87
2023/04/16 07:46:12;;;;;;;29.27;12.85;;;;;;;10.35;81.43;102252.53;5049828;28;20025;-87
2023/04/16 07:48:37;;;;;;;27.33;11.48;;;;;;;10.37;81.23;102258.69;5044789;28;20461;-87
2023/04/16 07:51:02;;;;;;;25.88;10.90;;;;;;;10.34;81.67;102264.91;5043824;28;20440;-87
2023/04/16 07:53:28;;;;;;;31.50;12.13;;;;;;;10.35;81.49;102260.47;5044808;28;20078;-87
2023/04/16 07:55:53;;;;;;;31.83;11.57;;;;;;;10.33;81.27;102251.72;5052354;28;20484;-87
2023/04/16 07:58:18;;;;;;;26.58;13.32;;;;;;;10.45;80.97;102267.38;5040676;28;20028;-87
2023/04/16 08:00:44;;;;;;;27.10;11.50;;;;;;;10.47;81.23;102277.00;5047196;28;20098;-87
2023/04/16 08:03:10;;;;;;;23.60;11.27;;;;;;;10.46;80.97;102266.47;5049073;28;20271;-87
2023/04/16 08:05:35;;;;;;;23.98;12.15;;;;;;;10.51;80.54;102277.84;5047268;28;20479;-87
2023/04/16 08:08:00;;;;;;;29.10;11.52;;;;;;;10.43;80.58;102266.53;5023642;28;20067;-87
2023/04/16 08:10:27;;;;;;;24.38;11.27;;;;;;;10.46;80.79;102277.91;5024823;28;20052;-87
2023/04/16 08:12:52;;;;;;;26.08;11.57;;;;;;;10.52;80.47;102279.59;5040294;28;20515;-87
2023/04/16 08:15:18;;;;;;;23.45;10.85;;;;;;;10.54;80.11;102291.03;5023196;28;20044;-87
2023/04/16 08:17:43;;;;;;;28.63;12.13;;;;;;;10.55;80.34;102290.13;5043978;28;20127;-87
2023/04/16 08:20:09;;;;;;;26.73;12.07;;;;;;;10.51;80.47;102282.25;5048551;28;20491;-87
2023/04/16 08:22:34;;;;;;;27.25;12.35;;;;;;;10.57;80.31;102290.94;5041897;28;20029;-87
2023/04/16 08:24:59;;;;;;;25.30;12.32;;;;;;;10.57;79.97;102282.16;5042827;28;20503;-88
2023/04/16 08:27:25;;;;;;;23.83;12.35;;;;;;;10.61;80.18;102300.59;5022377;28;20025;-87
2023/04/16 08:29:50;;;;;;;31.00;12.27;;;;;;;10.58;79.72;102287.41;5035272;28;20460;-87
2023/04/16 08:32:16;;;;;;;29.25;11.98;;;;;;;10.63;79.86;102300.56;5043035;28;20094;-87
2023/04/16 08:34:41;;;;;;;27.67;12.10;;;;;;;10.60;79.87;102295.34;5023370;28;20039;-87
2023/04/16 08:37:06;;;;;;;26.50;12.35;;;;;;;10.63;80.23;102305.84;5039285;28;20108;-87
2023/04/16 08:39:32;;;;;;;24.85;11.80;;;;;;;10.64;80.01;102289.97;5035440;28;20029;-87
2023/04/16 08:41:57;;;;;;;24.27;11.52;;;;;;;10.67;79.85;102295.19;5045635;28;20029;-87
2023/04/16 08:44:30;;;;;;;27.90;12.48;;;;;;;10.78;79.73;102310.03;5035770;28;20036;-87
2023/04/16 08:46:57;;;;;;;24.73;12.50;;;;;;;10.80;79.76;102303.78;5023225;28;20036;-87
2023/04/16 08:49:24;;;;;;;22.50;12.10;;;;;;;10.84;79.34;102312.56;5041640;28;20103;-87
2023/04/16 08:51:51;;;;;;;29.70;12.68;;;;;;;10.87;79.47;102312.50;5041250;28;20021;-87
2023/04/16 08:54:35;;;;;;;24.65;12.00;;;;;;;10.95;79.05;102319.38;5039681;28;20029;-87
2023/04/16 08:57:05;;;;;;;23.92;12.18;;;;;;;10.86;79.44;102306.31;5015989;28;20037;-87
2023/04/16 08:59:31;;;;;;;27.45;12.85;;;;;;;10.94;79.04;102319.41;5024607;28;20112;-87
2023/04/16 09:01:59;;;;;;;27.48;12.10;;;;;;;10.93;78.63;102315.91;5042055;28;20043;-87
2023/04/16 09:04:27;;;;;;;24.58;11.25;;;;;;;10.96;79.21;102330.88;5027013;28;20033;-87
2023/04/16 09:06:54;;;;;;;29.50;12.68;;;;;;;10.88;79.00;102311.59;5022336;28;20032;-87
2023/04/16 09:09:20;;;;;;;30.23;13.35;;;;;;;10.97;78.68;102307.00;5023051;28;20032;-87
2023/04/16 09:11:49;;;;;;;28.25;12.95;;;;;;;10.98;78.36;102298.16;5028770;28;20079;-88
2023/04/16 09:14:16;;;;;;;29.52;12.75;;;;;;;11.10;78.32;102320.91;5042282;28;20032;-87
2023/04/16 09:16:42;;;;;;;27.05;12.45;;;;;;;11.10;78.47;102320.03;5046901;28;20048;-87
2023/04/16 09:19:07;;;;;;;28.63;12.48;;;;;;;11.10;78.75;102328.84;5044911;28;20028;-87
2023/04/16 09:21:32;;;;;;;27.92;12.65;;;;;;;11.14;78.59;102333.16;5041364;28;20517;-87
2023/04/16 09:23:59;;;;;;;29.50;12.85;;;;;;;11.22;77.97;102330.38;5021931;28;20021;-87
2023/04/16 09:26:25;;;;;;;22.85;12.15;;;;;;;11.30;78.47;102335.53;5043683;28;20120;-88
2023/04/16 09:28:51;;;;;;;24.17;12.35;;;;;;;11.33;77.93;102335.44;5022821;28;20142;-87
2023/04/16 09:31:17;;;;;;;29.27;12.85;;;;;;;11.27;77.71;102324.97;5022488;28;20124;-87
2023/04/16 09:33:59;;;;;;;29.08;12.80;;;;;;;11.33;77.58;102346.03;5037174;28;20035;-88
2023/04/16 09:36:26;;;;;;;28.17;13.45;;;;;;;11.20;78.05;102325.13;5030517;28;20029;-87
2023/04/16 09:38:52;;;;;;;32.38;13.35;;;;;;;11.34;77.72;102351.31;5022544;28;20020;-87
2023/04/16 09:41:18;;;;;;;29.33;13.63;;;;;;;11.36;77.88;102351.28;5042072;28;20365;-87
2023/04/16 09:43:48;;;;;;;25.65;12.85;;;;;;;11.35;77.47;102350.41;5041139;28;20025;-87
2023/04/16 09:46:14;;;;;;;26.23;13.43;;;;;;;11.32;77.69;102341.66;5044116;28;20029;-88
2023/04/16 09:48:39;;;;;;;30.33;12.93;;;;;;;11.48;77.50;102353.72;5048119;28;20055;-87
2023/04/16 09:51:06;;;;;;;30.55;13.68;;;;;;;11.42;77.18;102345.88;5025959;28;20029;-87
2023/04/16 09:53:31;;;;;;;25.00;13.43;;;;;;;11.52;76.88;102352.75;5026808;28;20816;-87
2023/04/16 09:56:01;;;;;;;24.92;12.23;;;;;;;11.56;77.32;102348.25;5027517;28;20118;-87
2023/04/16 09:58:27;;;;;;;31.17;14.55;;;;;;;11.55;77.31;102355.31;5043797;28;20036;-88
2023/04/16 10:01:05;;;;;;;27.92;14.27;;;;;;;11.60;77.09;102350.78;5041060;28;20475;-88
2023/04/16 10:03:35;;;;;;;25.23;13.15;;;;;;;11.72;76.65;102360.28;5044570;28;20086;-88
2023/04/16 10:06:14;;;;;;;27.30;14.85;;;;;;;11.75;76.21;102363.75;5052598;28;20628;-87
2023/04/16 10:08:50;;;;;;;22.27;12.63;;;;;;;11.77;76.28;102360.19;5016775;28;20040;-88
2023/04/16 10:11:17;;;;;;;29.42;13.68;;;;;;;11.77;76.17;102363.72;5035147;28;20021;-87
2023/04/16 10:13:42;;;;;;;23.15;12.55;;;;;;;11.77;75.97;102362.84;5046327;28;20024;-87
2023/04/16 10:16:08;;;;;;;25.73;13.52;;;;;;;11.67;76.61;102355.09;5043289;28;20127;-88
2023/04/16 10:18:38;;;;;;;24.55;13.35;;;;;;;11.79;76.01;102366.31;5033015;28;20171;-88
2023/04/16 10:21:04;;;;;;;26.23;14.18;;;;;;;11.68;76.59;102366.53;5023956;28;20530;-88
2023/04/16 10:23:31;;;;;;;26.20;13.85;;;;;;;11.60;76.78;102355.22;5048034;28;20124;-88
2023/04/16 10:25:58;;;;;;;32.45;14.23;;;;;;;11.70;76.23;102367.38;5044354;28;20036;-88
2023/04/16 10:28:24;;;;;;;24.77;12.90;;;;;;;11.57;76.31;102355.31;5045643;28;20036;-88
2023/04/16 10:30:54;;;;;;;23.83;13.98;;;;;;;11.58;76.45;102370.28;5040886;28;20607;-88
2023/04/16 10:33:21;;;;;;;26.05;15.10;;;;;;;11.54;76.61;102361.53;5026712;28;20529;-88
2023/04/16 10:35:48;;;;;;;25.02;13.00;;;;;;;11.61;76.75;102371.09;5039922;28;20037;-88
2023/04/16 10:38:22;;;;;;;30.10;14.95;;;;;;;11.67;76.62;102383.34;5045474;28;20021;-89
2023/04/16 10:40:47;;;;;;;26.92;12.93;;;;;;;11.58;76.57;102372.94;5047666;28;20082;-88
2023/04/16 10:43:17;;;;;;;27.67;14.30;;;;;;;11.65;76.97;102363.94;5019354;28;20508;-88
2023/04/16 10:45:43;;;;;;;26.63;14.20;;;;;;;11.68;76.59;102371.84;5039750;28;20036;-88
2023/04/16 10:48:08;;;;;;;30.25;14.18;;;;;;;11.75;76.43;102368.19;5044938;28;20033;-89
2023/04/16 10:50:37;;;;;;;22.92;12.85;;;;;;;11.82;75.80;102377.75;5038533;28;20483;-88
2023/04/16 10:53:27;;;;;;;27.05;13.98;;;;;;;11.93;76.08;102380.19;5038085;28;20853;-88
2023/04/16 10:56:11;;;;;;;27.20;13.27;;;;;;;11.94;75.78;102374.00;5030551;28;20469;-88
2023/04/16 10:58:37;;;;;;;31.10;14.30;;;;;;;11.90;75.94;102388.22;5040497;28;20476;-88
2023/04/16 11:01:11;;;;;;;25.40;13.50;;;;;;;11.95;74.97;102363.34;5035152;28;20029;-88
2023/04/16 11:03:40;;;;;;;24.23;12.95;;;;;;;12.10;74.59;102371.88;5013800;28;20303;-89
2023/04/16 11:06:15;;;;;;;24.73;12.55;;;;;;;12.13;74.52;102377.13;5025730;28;20115;-88
2023/04/16 11:08:42;;;;;;;23.67;12.93;;;;;;;12.09;74.32;102378.97;5019735;28;20515;-88
2023/04/16 11:11:08;;;;;;;28.27;14.18;;;;;;;11.96;74.94;102349.19;5018946;28;20098;-89
2023/04/16 11:13:35;;;;;;;30.45;13.10;;;;;;;11.99;74.61;102359.75;5042391;28;20041;-88